Time;durP1;ratioP1;P1;durP2;ratioP2;P2;SDS_P1;SDS_P2;PMS_P1;PMS_P2;Temp;Humidity;BMP_temperature;BMP_pressure;BME280_temperature;BME280_humidity;BME280_pressure;Samples;Min_cycle;Max_cycle;Signal;HPM_P1;HPM_P2
2022/05/07 00:01:56;;;;;;;35.92;17.60;;;;;;;12.36;100.00;102278.22;5043105;28;20043;-69
2022/05/07 00:04:22;;;;;;;36.45;19.92;;;;;;;12.34;99.77;102275.63;5032127;28;20055;-70
2022/05/07 00:06:48;;;;;;;32.92;18.17;;;;;;;12.30;99.94;102270.44;5061613;28;20033;-69
2022/05/07 00:09:14;;;;;;;31.35;17.63;;;;;;;12.27;99.85;102271.44;5061350;28;20036;-69
2022/05/07 00:11:40;;;;;;;34.90;18.63;;;;;;;12.23;100.00;102272.41;5059757;28;20086;-70
2022/05/07 00:14:06;;;;;;;33.17;18.63;;;;;;;12.20;99.95;102273.38;5035922;28;21369;-69
2022/05/07 00:19:16;;;;;;;31.08;17.05;;;;;;;12.16;100.00;102268.22;5056524;28;20031;-69
2022/05/07 00:21:41;;;;;;;32.67;17.55;;;;;;;12.15;100.00;102275.28;5062391;28;20807;-70
2022/05/07 00:24:07;;;;;;;32.50;17.20;;;;;;;12.15;100.00;102263.81;5061058;28;20604;-69
2022/05/07 00:26:33;;;;;;;32.38;17.52;;;;;;;12.16;100.00;102266.41;5061470;28;20031;-70
2022/05/07 00:28:58;;;;;;;29.40;16.85;;;;;;;12.15;100.00;102256.72;5011737;28;20028;-69
2022/05/07 00:31:23;;;;;;;30.55;17.50;;;;;;;12.14;100.00;102247.00;5056072;28;20813;-69
2022/05/07 00:33:49;;;;;;;29.90;17.83;;;;;;;12.15;100.00;102258.50;5044751;28;20040;-70
2022/05/07 00:36:15;;;;;;;30.65;17.08;;;;;;;12.14;99.83;102252.31;5042859;28;20034;-69
2022/05/07 00:38:40;;;;;;;32.63;17.60;;;;;;;12.13;99.98;102247.94;5062133;28;20085;-69
2022/05/07 00:41:05;;;;;;;29.63;17.85;;;;;;;12.12;100.00;102248.84;5062293;28;20125;-70
2022/05/07 00:43:35;;;;;;;34.15;18.17;;;;;;;12.12;99.99;102255.94;5060614;28;20055;-69
2022/05/07 00:46:01;;;;;;;33.45;17.73;;;;;;;12.14;100.00;102256.78;5044062;28;20044;-70
2022/05/07 00:48:26;;;;;;;33.00;17.98;;;;;;;12.14;100.00;102246.16;5060047;28;20043;-70
2022/05/07 00:53:37;;;;;;;30.88;17.52;;;;;;;12.14;100.00;102240.84;5045175;28;20043;-69
2022/05/07 00:56:03;;;;;;;32.22;18.27;;;;;;;12.17;100.00;102246.06;5039833;28;20131;-70
2022/05/07 00:58:29;;;;;;;32.28;17.80;;;;;;;12.17;100.00;102240.75;5041750;28;20056;-69
2022/05/07 01:00:54;;;;;;;32.13;18.15;;;;;;;12.18;100.00;102248.66;5062661;28;20112;-70
2022/05/07 01:03:20;;;;;;;30.75;17.67;;;;;;;12.19;100.00;102254.84;5051320;28;20122;-70
2022/05/07 01:05:45;;;;;;;32.85;18.02;;;;;;;12.19;100.00;102246.88;5042844;28;20036;-70
2022/05/07 01:08:12;;;;;;;31.95;17.52;;;;;;;12.19;100.00;102242.44;5064248;28;20051;-69
2022/05/07 01:10:38;;;;;;;33.70;18.05;;;;;;;12.18;100.00;102250.44;5064916;28;20035;-69
2022/05/07 01:13:04;;;;;;;32.15;17.75;;;;;;;12.16;100.00;102247.81;5063011;28;20025;-69
2022/05/07 01:15:30;;;;;;;31.45;17.75;;;;;;;12.15;100.00;102247.91;5063363;28;20113;-70
2022/05/07 01:17:56;;;;;;;33.25;18.40;;;;;;;12.10;100.00;102250.69;5063596;28;20044;-69
2022/05/07 01:20:22;;;;;;;35.00;18.30;;;;;;;12.06;100.00;102247.25;5064890;28;20032;-69
2022/05/07 01:22:48;;;;;;;35.78;18.55;;;;;;;12.03;100.00;102239.38;5063838;28;20570;-69
2022/05/07 01:25:14;;;;;;;32.50;18.77;;;;;;;12.02;100.00;102247.34;5064969;28;20415;-70
2022/05/07 01:27:40;;;;;;;32.90;18.50;;;;;;;11.99;100.00;102242.13;5064369;28;20036;-70
2022/05/07 01:30:06;;;;;;;31.77;17.27;;;;;;;11.96;100.00;102240.44;5045768;28;20028;-70
2022/05/07 01:32:32;;;;;;;31.38;17.98;;;;;;;11.93;100.00;102238.72;5065095;28;20158;-70
2022/05/07 01:34:57;;;;;;;31.35;18.05;;;;;;;11.92;100.00;102242.31;5047440;28;20036;-69
2022/05/07 01:37:24;;;;;;;35.17;18.08;;;;;;;11.90;100.00;102236.19;5047777;28;20484;-69
2022/05/07 01:39:50;;;;;;;29.38;17.13;;;;;;;11.88;100.00;102235.34;5051264;28;20040;-70
2022/05/07 01:42:15;;;;;;;32.78;17.80;;;;;;;11.88;100.00;102234.47;5058432;28;20028;-69
2022/05/07 01:44:41;;;;;;;33.28;16.63;;;;;;;11.86;100.00;102234.50;5063580;28;20064;-70
2022/05/07 01:49:50;;;;;;;31.60;18.23;;;;;;;11.84;100.00;102224.84;5059925;28;20159;-69
2022/05/07 01:52:16;;;;;;;29.83;17.45;;;;;;;11.82;100.00;102225.78;5065218;28;20597;-71
2022/05/07 01:54:42;;;;;;;27.38;17.00;;;;;;;11.81;100.00;102223.16;5045167;28;20053;-70
2022/05/07 01:57:08;;;;;;;30.00;17.10;;;;;;;11.78;100.00;102221.44;5064393;28;20028;-71
2022/05/07 01:59:33;;;;;;;32.58;17.75;;;;;;;11.77;100.00;102227.69;5024117;28;20111;-69
2022/05/07 02:01:59;;;;;;;31.45;17.58;;;;;;;11.74;100.00;102227.78;5046540;28;20031;-69
2022/05/07 02:04:24;;;;;;;32.90;17.83;;;;;;;11.73;100.00;102231.34;5045548;28;20038;-70
2022/05/07 02:06:50;;;;;;;28.50;17.17;;;;;;;11.68;100.00;102226.16;5045022;28;20045;-70
2022/05/07 02:09:16;;;;;;;28.55;17.67;;;;;;;11.65;100.00;102228.03;5063553;28;21012;-70
2022/05/07 02:11:41;;;;;;;32.17;18.90;;;;;;;11.64;100.00;102228.94;5044204;28;20032;-70
2022/05/07 02:14:07;;;;;;;29.35;17.63;;;;;;;11.60;100.00;102228.16;5044361;28;20696;-70
2022/05/07 02:16:33;;;;;;;27.50;17.00;;;;;;;11.57;100.00;102227.38;5024090;28;20038;-71
2022/05/07 02:18:59;;;;;;;28.95;17.15;;;;;;;11.53;100.00;102223.94;5046841;28;20058;-70
2022/05/07 02:21:24;;;;;;;33.63;17.52;;;;;;;11.48;100.00;102229.38;5063966;28;20059;-70
2022/05/07 02:23:50;;;;;;;35.13;18.10;;;;;;;11.46;100.00;102227.66;5057866;28;20089;-70
2022/05/07 02:26:15;;;;;;;27.80;17.02;;;;;;;11.43;100.00;102223.31;5063225;28;20032;-70
2022/05/07 02:28:41;;;;;;;28.70;16.88;;;;;;;11.41;100.00;102217.19;5061655;28;20059;-70
2022/05/07 02:31:06;;;;;;;28.13;16.42;;;;;;;11.39;100.00;102221.69;5063086;28;20068;-70
2022/05/07 02:33:34;;;;;;;27.58;16.63;;;;;;;11.37;100.00;102224.34;5064340;28;20041;-70
2022/05/07 02:35:59;;;;;;;32.67;18.27;;;;;;;11.36;100.00;102216.44;5049292;28;20672;-70
2022/05/07 02:38:25;;;;;;;28.33;16.90;;;;;;;11.35;100.00;102222.66;5042865;28;20050;-70
2022/05/07 02:43:35;;;;;;;31.88;16.88;;;;;;;11.32;100.00;102220.94;5072318;28;20694;-71
2022/05/07 02:46:00;;;;;;;27.98;17.27;;;;;;;11.32;100.00;102228.91;5046564;28;20044;-69
2022/05/07 02:48:29;;;;;;;27.77;16.05;;;;;;;11.30;100.00;102227.19;5074929;28;20032;-71
2022/05/07 02:50:54;;;;;;;28.02;16.30;;;;;;;11.28;100.00;102227.28;5046313;28;20047;-70
2022/05/07 02:53:20;;;;;;;26.20;16.27;;;;;;;11.27;100.00;102226.38;5054730;28;20743;-70
2022/05/07 02:55:46;;;;;;;26.08;15.30;;;;;;;11.27;100.00;102229.03;5025488;28;20024;-70
2022/05/07 02:58:11;;;;;;;28.00;16.10;;;;;;;11.26;100.00;102235.25;5072794;28;20027;-69
2022/05/07 03:00:37;;;;;;;28.23;16.23;;;;;;;11.25;100.00;102229.97;5054305;28;20136;-69
2022/05/07 03:03:02;;;;;;;27.88;16.02;;;;;;;11.24;100.00;102226.44;5065824;28;20039;-70
2022/05/07 03:05:29;;;;;;;25.70;15.73;;;;;;;11.26;100.00;102226.41;5071147;28;20043;-70
2022/05/07 03:07:58;;;;;;;26.58;15.38;;;;;;;11.26;100.00;102229.94;5053392;28;21955;-70
2022/05/07 03:10:23;;;;;;;24.42;15.85;;;;;;;11.26;100.00;102226.41;5049567;28;20566;-70
2022/05/07 03:12:49;;;;;;;25.00;16.00;;;;;;;11.27;100.00;102226.38;5031416;28;20028;-68
2022/05/07 03:15:14;;;;;;;26.80;16.05;;;;;;;11.30;100.00;102227.19;5070833;28;20511;-70
2022/05/07 03:17:40;;;;;;;28.90;16.63;;;;;;;11.32;100.00;102233.34;5071916;28;20024;-71
2022/05/07 03:20:09;;;;;;;31.00;16.60;;;;;;;11.33;100.00;102221.84;5075486;28;20533;-70
2022/05/07 03:22:35;;;;;;;25.20;15.13;;;;;;;11.34;100.00;102231.53;5078719;28;20134;-69
2022/05/07 03:25:01;;;;;;;27.23;15.35;;;;;;;11.33;100.00;102229.78;5055893;28;20385;-70
2022/05/07 03:27:29;;;;;;;28.15;16.17;;;;;;;11.31;100.00;102228.94;5072651;28;21024;-72
2022/05/07 03:29:55;;;;;;;23.40;14.65;;;;;;;11.30;100.00;102233.38;5061750;28;20025;-71
2022/05/07 03:32:20;;;;;;;28.55;16.00;;;;;;;11.31;100.00;102231.59;5057758;28;20047;-72
2022/05/07 03:34:46;;;;;;;23.30;15.48;;;;;;;11.29;100.00;102231.66;5083409;28;20044;-70
2022/05/07 03:37:12;;;;;;;27.92;16.35;;;;;;;11.28;100.00;102230.78;5076644;28;20590;-70
2022/05/07 03:39:37;;;;;;;23.40;14.85;;;;;;;11.27;100.00;102230.81;5072381;28;20123;-70
2022/05/07 03:42:03;;;;;;;22.17;14.30;;;;;;;11.24;100.00;102223.78;5078621;28;20104;-75
2022/05/07 03:44:29;;;;;;;26.40;15.95;;;;;;;11.22;100.00;102225.63;5060539;28;20040;-70
2022/05/07 03:46:55;;;;;;;22.38;14.55;;;;;;;11.21;100.00;102231.84;5065815;28;20043;-72
2022/05/07 03:49:20;;;;;;;25.67;15.38;;;;;;;11.19;100.00;102225.72;5070106;28;20046;-70
2022/05/07 03:54:30;;;;;;;25.83;15.23;;;;;;;11.18;100.00;102223.97;5062257;28;20528;-70
2022/05/07 03:56:56;;;;;;;26.50;15.77;;;;;;;11.19;100.00;102225.72;5063598;28;20122;-70
2022/05/07 03:59:22;;;;;;;30.00;16.42;;;;;;;11.19;100.00;102225.72;5041773;28;20036;-71
2022/05/07 04:01:47;;;;;;;25.02;15.32;;;;;;;11.20;100.00;102238.06;5062709;28;20036;-70
2022/05/07 04:04:13;;;;;;;25.85;16.00;;;;;;;11.23;100.00;102234.47;5062534;28;20070;-69
2022/05/07 04:06:38;;;;;;;27.75;15.55;;;;;;;11.24;100.00;102236.19;5063313;28;20580;-70
2022/05/07 04:09:04;;;;;;;26.20;16.33;;;;;;;11.26;100.00;102237.91;5061701;28;20484;-70
2022/05/07 04:11:29;;;;;;;29.83;16.73;;;;;;;11.27;100.00;102242.28;5058260;28;20484;-70
2022/05/07 04:13:55;;;;;;;25.02;15.23;;;;;;;11.26;100.00;102235.25;5046318;28;20065;-70
2022/05/07 04:16:20;;;;;;;27.63;16.20;;;;;;;11.28;100.00;102228.13;5061192;28;20127;-70
2022/05/07 04:18:46;;;;;;;27.13;16.83;;;;;;;11.30;100.00;102233.38;5060579;28;20161;-70
2022/05/07 04:21:11;;;;;;;27.48;16.60;;;;;;;11.31;100.00;102239.53;5062119;28;20036;-71
2022/05/07 04:23:37;;;;;;;30.63;17.48;;;;;;;11.34;100.00;102236.81;5061532;28;20068;-70
2022/05/07 04:26:03;;;;;;;26.45;16.33;;;;;;;11.35;100.00;102233.25;5059531;28;20481;-70
2022/05/07 04:28:28;;;;;;;26.65;16.27;;;;;;;11.33;100.00;102235.09;5062163;28;20089;-70
2022/05/07 04:30:54;;;;;;;25.63;16.45;;;;;;;11.33;100.00;102237.75;5061535;28;20476;-70
2022/05/07 04:33:19;;;;;;;28.00;16.08;;;;;;;11.32;100.00;102236.00;5061189;28;20063;-71
2022/05/07 04:35:48;;;;;;;28.95;17.35;;;;;;;11.33;100.00;102237.75;5065606;28;20024;-71
2022/05/07 04:38:14;;;;;;;29.95;18.10;;;;;;;11.33;100.00;102243.91;5066576;28;20090;-70
2022/05/07 04:40:39;;;;;;;32.83;17.75;;;;;;;11.34;100.00;102242.13;5061806;28;20500;-70
2022/05/07 04:43:05;;;;;;;27.20;17.52;;;;;;;11.34;100.00;102248.28;5046910;28;21781;-72
2022/05/07 04:45:30;;;;;;;28.48;16.85;;;;;;;11.33;100.00;102249.19;5062937;28;20259;-71
2022/05/07 04:47:56;;;;;;;32.00;17.77;;;;;;;11.32;100.00;102246.63;5065128;28;20032;-72
2022/05/07 04:50:21;;;;;;;30.50;17.50;;;;;;;11.31;100.00;102245.72;5046797;28;20028;-71
2022/05/07 04:52:47;;;;;;;30.33;17.08;;;;;;;11.32;100.00;102246.63;5065132;28;20411;-71
2022/05/07 04:55:13;;;;;;;29.45;17.98;;;;;;;11.35;100.00;102242.09;5064763;28;20162;-71
2022/05/07 04:57:38;;;;;;;27.92;16.48;;;;;;;11.38;100.00;102246.41;5062281;28;21303;-72
2022/05/07 05:00:05;;;;;;;29.70;17.35;;;;;;;11.39;100.00;102250.84;5065459;28;20040;-71
2022/05/07 05:02:31;;;;;;;30.90;17.83;;;;;;;11.39;100.00;102248.19;5066058;28;20090;-71
2022/05/07 05:04:56;;;;;;;32.83;18.10;;;;;;;11.40;100.00;102252.56;5049265;28;20115;-71
2022/05/07 05:07:22;;;;;;;28.45;16.38;;;;;;;11.40;100.00;102263.19;5065285;28;20036;-72
2022/05/07 05:09:47;;;;;;;31.50;17.98;;;;;;;11.40;100.00;102257.88;5047294;28;20031;-71
2022/05/07 05:12:13;;;;;;;32.45;17.63;;;;;;;11.40;100.00;102257.88;5063924;28;21395;-71
2022/05/07 05:17:23;;;;;;;30.50;17.05;;;;;;;11.34;100.00;102256.25;5063396;28;20273;-70
2022/05/07 05:19:48;;;;;;;29.00;16.70;;;;;;;11.32;100.00;102258.06;5064223;28;21882;-71
2022/05/07 05:22:14;;;;;;;32.38;17.50;;;;;;;11.33;100.00;102264.25;5067504;28;20039;-71
2022/05/07 05:24:39;;;;;;;34.22;19.40;;;;;;;11.35;100.00;102263.31;5066203;28;20667;-71
2022/05/07 05:27:05;;;;;;;29.38;17.95;;;;;;;11.38;100.00;102260.56;5065335;28;20640;-71
2022/05/07 05:29:32;;;;;;;33.78;19.15;;;;;;;11.43;100.00;102260.44;5063694;28;20098;-71
2022/05/07 05:31:58;;;;;;;29.05;17.42;;;;;;;11.49;100.00;102264.72;5066979;28;20107;-70
2022/05/07 05:34:24;;;;;;;29.75;17.55;;;;;;;11.51;100.00;102265.56;5058688;28;20574;-70
2022/05/07 05:36:49;;;;;;;28.63;17.88;;;;;;;11.55;100.00;102265.41;5063185;28;20062;-71
2022/05/07 05:39:14;;;;;;;33.00;18.13;;;;;;;11.61;100.00;102268.81;5043334;28;20032;-71
2022/05/07 05:41:42;;;;;;;32.33;19.13;;;;;;;11.67;100.00;102276.63;5052626;28;20117;-71
2022/05/07 05:44:07;;;;;;;31.50;18.40;;;;;;;11.70;100.00;102281.81;5066155;28;20053;-70
2022/05/07 05:46:33;;;;;;;27.77;17.38;;;;;;;11.77;100.00;102286.06;5042704;28;20151;-72
2022/05/07 05:48:58;;;;;;;30.30;17.80;;;;;;;11.85;100.00;102282.31;5064693;28;20029;-72
2022/05/07 05:51:24;;;;;;;30.83;18.33;;;;;;;11.92;100.00;102291.84;5066984;28;20039;-71
2022/05/07 05:53:49;;;;;;;33.75;19.10;;;;;;;11.96;100.00;102288.19;5063713;28;20041;-71
2022/05/07 05:56:15;;;;;;;31.92;18.45;;;;;;;12.03;100.00;102289.78;5064148;28;20024;-71
2022/05/07 05:58:40;;;;;;;31.75;18.40;;;;;;;12.09;100.00;102281.66;5046281;28;20439;-71
2022/05/07 06:01:06;;;;;;;31.73;18.73;;;;;;;12.17;100.00;102286.75;5048443;28;20040;-71
2022/05/07 06:03:32;;;;;;;32.50;19.58;;;;;;;12.31;100.00;102294.31;5047506;28;20095;-71
2022/05/07 06:05:57;;;;;;;32.63;18.92;;;;;;;12.44;100.00;102297.47;5064453;28;20058;-71
2022/05/07 06:08:23;;;;;;;26.88;17.17;;;;;;;12.60;100.00;102295.19;5062614;28;22070;-71
2022/05/07 06:10:52;;;;;;;29.40;17.20;;;;;;;12.73;100.00;102303.66;5063602;28;20039;-70
2022/05/07 06:13:18;;;;;;;31.75;18.77;;;;;;;12.84;100.00;102315.72;5063407;28;20085;-70
2022/05/07 06:15:45;;;;;;;30.35;17.77;;;;;;;12.93;100.00;102315.47;5060973;28;20089;-71
2022/05/07 06:18:11;;;;;;;33.50;19.00;;;;;;;12.97;100.00;102317.09;5061444;28;20154;-71
2022/05/07 06:20:37;;;;;;;28.00;17.48;;;;;;;13.07;100.00;102312.34;5039211;28;20043;-71
2022/05/07 06:23:03;;;;;;;31.50;17.85;;;;;;;13.18;100.00;102315.53;5029364;28;20039;-71
2022/05/07 06:28:13;;;;;;;32.20;18.38;;;;;;;13.50;100.00;102326.03;5063490;28;20499;-72
2022/05/07 06:30:39;;;;;;;33.70;18.48;;;;;;;13.67;100.00;102317.47;5062913;28;20028;-69
2022/05/07 06:33:04;;;;;;;31.48;18.98;;;;;;;13.78;100.00;102326.88;5061695;28;20023;-71
2022/05/07 06:35:30;;;;;;;35.40;19.73;;;;;;;13.90;100.00;102321.09;5045907;28;20104;-72
2022/05/07 06:37:55;;;;;;;34.80;20.60;;;;;;;14.00;100.00;102321.63;5033911;28;20650;-71
2022/05/07 06:40:21;;;;;;;34.25;20.30;;;;;;;14.19;100.00;102328.94;5061971;28;20040;-72
2022/05/07 06:42:47;;;;;;;40.15;21.48;;;;;;;14.40;100.00;102330.78;5044840;28;20031;-72
2022/05/07 06:45:13;;;;;;;39.58;21.85;;;;;;;14.53;100.00;102323.22;5063231;28;20044;-72
2022/05/07 06:47:38;;;;;;;37.45;21.60;;;;;;;14.59;100.00;102326.56;5036705;28;20047;-72
2022/05/07 06:50:04;;;;;;;37.47;21.00;;;;;;;14.56;100.00;102321.34;5060614;28;20138;-71
2022/05/07 06:52:30;;;;;;;36.55;20.52;;;;;;;14.55;99.74;102319.63;5063394;28;20036;-73
2022/05/07 06:54:56;;;;;;;35.88;20.35;;;;;;;14.53;99.93;102323.22;5060535;28;20393;-72
2022/05/07 06:57:24;;;;;;;40.97;21.75;;;;;;;14.63;100.00;102318.41;5037004;28;20067;-76
2022/05/07 06:59:50;;;;;;;35.03;21.15;;;;;;;14.76;100.00;102318.81;5062235;28;20452;-73
2022/05/07 07:02:15;;;;;;;34.38;21.00;;;;;;;14.88;99.33;102322.75;5048513;28;20025;-76
2022/05/07 07:04:41;;;;;;;38.78;20.98;;;;;;;14.91;98.76;102328.00;5044132;28;20652;-74
2022/05/07 07:07:07;;;;;;;34.47;20.27;;;;;;;14.90;97.76;102325.38;5044619;28;20488;-73
2022/05/07 07:09:33;;;;;;;36.97;20.23;;;;;;;14.86;97.93;102315.78;5045169;28;20779;-74
2022/05/07 07:11:59;;;;;;;31.35;20.38;;;;;;;14.82;97.58;102322.16;5044063;28;20037;-74
2022/05/07 07:14:24;;;;;;;35.78;21.90;;;;;;;14.77;97.88;102317.88;5017297;28;20062;-76
2022/05/07 07:16:50;;;;;;;35.90;21.73;;;;;;;14.74;97.96;102315.34;5061939;28;20109;-76
2022/05/07 07:19:16;;;;;;;36.78;22.10;;;;;;;14.66;98.06;102320.94;5063732;28;20541;-74
2022/05/07 07:21:43;;;;;;;34.28;21.70;;;;;;;14.62;98.35;102321.13;5044174;28;20040;-75
2022/05/07 07:24:08;;;;;;;34.35;21.48;;;;;;;14.64;98.66;102320.13;5045601;28;20213;-75
2022/05/07 07:26:34;;;;;;;35.95;21.23;;;;;;;14.67;98.55;102324.47;5063852;28;20036;-74
2022/05/07 07:28:59;;;;;;;38.72;21.35;;;;;;;14.67;98.17;102327.13;5042793;28;20768;-76
2022/05/07 07:31:25;;;;;;;32.75;20.33;;;;;;;14.71;98.33;102326.06;5062793;28;20044;-75
2022/05/07 07:33:50;;;;;;;35.17;20.48;;;;;;;14.67;97.98;102327.13;5064937;28;20067;-76
2022/05/07 07:36:16;;;;;;;32.75;20.23;;;;;;;14.69;97.86;102327.94;5045234;28;20036;-76
2022/05/07 07:38:42;;;;;;;36.90;20.50;;;;;;;14.71;97.36;102326.06;5063290;28;20036;-74
2022/05/07 07:41:07;;;;;;;33.80;20.60;;;;;;;14.72;97.08;102321.63;5064688;28;20067;-73
2022/05/07 07:43:36;;;;;;;34.58;20.38;;;;;;;14.77;97.62;102319.69;5061972;28;20039;-70
2022/05/07 07:48:47;;;;;;;30.73;18.05;;;;;;;14.85;97.37;102333.56;5063232;28;20149;-69
2022/05/07 07:51:13;;;;;;;31.27;17.13;;;;;;;14.90;96.50;102336.03;5063699;28;20083;-70
2022/05/07 07:53:39;;;;;;;30.67;18.13;;;;;;;14.95;96.58;102334.06;5063366;28;20036;-69
2022/05/07 07:56:04;;;;;;;33.05;18.58;;;;;;;15.01;96.07;102338.28;5062936;28;20040;-70
2022/05/07 07:58:30;;;;;;;28.30;16.25;;;;;;;15.09;95.88;102335.31;5062160;28;20115;-69
2022/05/07 08:00:56;;;;;;;28.73;16.55;;;;;;;15.15;95.30;102340.41;5063859;28;20034;-68
2022/05/07 08:03:22;;;;;;;30.73;17.38;;;;;;;15.23;95.44;102330.28;5042316;28;20039;-69
2022/05/07 08:05:49;;;;;;;29.90;16.15;;;;;;;15.29;95.29;102335.34;5059356;28;20039;-69
2022/05/07 08:13:46;;;;;;;28.63;16.23;;;;;;;15.39;93.93;102343.84;5062313;28;20039;-68
2022/05/07 08:16:13;;;;;;;26.85;16.10;;;;;;;15.49;93.39;102349.66;5060118;28;20020;-68
2022/05/07 08:18:40;;;;;;;28.67;16.42;;;;;;;15.55;92.69;102352.06;5063212;28;20067;-69
2022/05/07 08:21:06;;;;;;;29.98;16.90;;;;;;;15.60;92.61;102350.03;5045049;28;20037;-70
2022/05/07 08:23:32;;;;;;;28.67;16.83;;;;;;;15.71;92.44;102352.28;5063999;28;20115;-68
2022/05/07 08:25:58;;;;;;;35.47;18.45;;;;;;;15.80;92.28;102352.81;5044276;28;20035;-69
2022/05/07 08:28:24;;;;;;;32.13;19.15;;;;;;;15.87;92.17;102349.78;5061875;28;20162;-69
2022/05/07 08:30:51;;;;;;;33.60;20.67;;;;;;;15.93;92.06;102358.50;5063422;28;20044;-69
2022/05/07 08:33:17;;;;;;;34.83;20.15;;;;;;;15.97;91.88;102360.09;5062676;28;21568;-69
2022/05/07 08:35:43;;;;;;;34.80;20.08;;;;;;;15.96;91.88;102361.03;5044275;28;20446;-69
2022/05/07 08:38:09;;;;;;;33.65;19.80;;;;;;;15.89;91.28;102379.97;5063992;28;20408;-69
2022/05/07 08:40:34;;;;;;;34.53;19.80;;;;;;;15.87;91.85;102381.81;5061412;28;20029;-69
2022/05/07 08:43:00;;;;;;;35.55;19.65;;;;;;;15.95;91.79;102380.69;5044139;28;20032;-70
2022/05/07 08:45:26;;;;;;;33.38;19.10;;;;;;;16.03;91.65;102383.88;5058216;28;20268;-69
2022/05/07 08:47:54;;;;;;;31.98;18.33;;;;;;;16.13;91.48;102385.19;5063686;28;20045;-69
2022/05/07 08:50:21;;;;;;;34.42;18.98;;;;;;;16.20;91.30;102393.81;5063153;28;20060;-69
2022/05/07 08:52:47;;;;;;;29.85;18.25;;;;;;;16.25;90.55;102388.25;5044744;28;20098;-70
2022/05/07 08:55:14;;;;;;;33.55;19.38;;;;;;;16.27;90.33;102394.38;5059579;28;20048;-69
2022/05/07 08:57:41;;;;;;;31.95;18.35;;;;;;;16.34;90.57;102395.84;5061808;28;20089;-70
2022/05/07 09:00:11;;;;;;;29.75;19.27;;;;;;;16.32;90.23;102403.06;5062699;28;20151;-69
2022/05/07 09:02:50;;;;;;;32.45;19.63;;;;;;;16.33;90.28;102403.97;5063922;28;20620;-69
2022/05/07 09:05:18;;;;;;;28.48;17.38;;;;;;;16.30;89.46;102394.28;5061899;28;20040;-70
2022/05/07 09:07:53;;;;;;;32.30;17.83;;;;;;;16.31;88.44;102400.47;5064110;28;20063;-69
2022/05/07 09:10:22;;;;;;;35.90;19.25;;;;;;;16.21;88.86;102397.34;5062029;28;20036;-69
2022/05/07 09:12:47;;;;;;;29.92;18.42;;;;;;;16.10;89.03;102412.06;5031561;28;20063;-69
2022/05/07 09:15:13;;;;;;;31.60;17.88;;;;;;;16.15;89.77;102409.16;5043255;28;20146;-68
2022/05/07 09:17:38;;;;;;;32.75;17.52;;;;;;;16.16;89.25;102402.88;5062983;28;20591;-68
2022/05/07 09:20:21;;;;;;;28.23;16.55;;;;;;;16.18;88.11;102409.03;5049634;28;20388;-68
2022/05/07 09:22:55;;;;;;;27.70;15.80;;;;;;;16.24;88.30;102411.41;5048443;28;20513;-68
2022/05/07 09:25:26;;;;;;;28.98;15.85;;;;;;;16.26;87.78;102416.72;5067177;28;20325;-68
2022/05/07 09:27:54;;;;;;;26.85;14.75;;;;;;;16.24;87.90;102421.25;5041106;28;20047;-69
2022/05/07 09:30:27;;;;;;;29.67;15.57;;;;;;;16.18;87.13;102416.19;5065842;28;20029;-69
2022/05/07 09:32:55;;;;;;;26.58;16.40;;;;;;;16.01;86.57;102420.44;5041115;28;20029;-69
2022/05/07 09:38:12;;;;;;;26.17;15.02;;;;;;;15.92;86.89;102421.75;5066296;28;20032;-68
2022/05/07 09:40:42;;;;;;;23.42;13.57;;;;;;;15.98;87.18;102420.59;5049302;28;20483;-69
2022/05/07 09:43:08;;;;;;;23.25;14.15;;;;;;;16.05;87.02;102423.84;5066158;28;20535;-68
2022/05/07 09:45:35;;;;;;;27.65;14.68;;;;;;;16.11;86.90;102423.59;5041178;28;20139;-69
2022/05/07 09:48:01;;;;;;;26.00;14.63;;;;;;;16.10;86.00;102420.06;5064727;28;20498;-70
2022/05/07 09:58:37;;;;;;;28.73;15.90;;;;;;;16.00;86.19;102424.94;5062202;28;20023;-72
2022/05/07 10:01:20;;;;;;;26.17;15.20;;;;;;;15.87;85.84;102423.69;5064838;28;20089;-71
2022/05/07 10:03:52;;;;;;;26.40;14.15;;;;;;;15.80;86.39;102432.91;5063003;28;20023;-71
2022/05/07 10:06:23;;;;;;;23.77;13.60;;;;;;;15.68;86.48;102428.97;5065977;28;20039;-71
2022/05/07 10:08:49;;;;;;;27.05;13.57;;;;;;;15.67;86.68;102424.53;5065381;28;20392;-72
2022/05/07 10:11:16;;;;;;;25.00;12.75;;;;;;;15.60;86.73;102437.28;5065236;28;20846;-72
2022/05/07 10:13:55;;;;;;;25.40;13.85;;;;;;;15.56;86.82;102431.19;5023628;28;20075;-71
2022/05/07 10:16:21;;;;;;;26.92;15.40;;;;;;;15.51;87.51;102438.53;5064449;28;20592;-71
2022/05/07 10:18:47;;;;;;;30.08;15.48;;;;;;;15.48;87.82;102431.50;5065026;28;20027;-72
2022/05/07 10:21:17;;;;;;;30.60;17.65;;;;;;;15.46;88.10;102435.16;5043993;28;20758;-72
2022/05/07 10:23:53;;;;;;;33.67;18.20;;;;;;;15.52;88.14;102429.56;5066214;28;20063;-72
2022/05/07 10:26:20;;;;;;;32.08;16.88;;;;;;;15.63;88.01;102430.94;5046353;28;20127;-71
2022/05/07 10:28:46;;;;;;;36.40;18.63;;;;;;;15.71;87.65;102432.38;5046191;28;20032;-72
2022/05/07 10:31:20;;;;;;;34.78;18.55;;;;;;;15.72;87.67;102427.88;5064708;28;21346;-73
2022/05/07 10:33:46;;;;;;;33.75;17.77;;;;;;;15.78;88.03;102430.28;5050276;28;20028;-71
2022/05/07 10:36:12;;;;;;;34.67;17.20;;;;;;;15.83;87.54;102430.09;5064259;28;20043;-71
2022/05/07 10:38:39;;;;;;;32.38;17.65;;;;;;;15.89;87.61;102427.16;5064257;28;20557;-71
2022/05/07 10:41:19;;;;;;;29.48;16.80;;;;;;;16.01;87.38;102432.00;5065247;28;20161;-72
2022/05/07 10:44:00;;;;;;;29.52;15.45;;;;;;;16.04;86.38;102438.16;5063189;28;20491;-70
2022/05/07 10:46:36;;;;;;;27.27;14.13;;;;;;;15.99;86.25;102441.91;5064746;28;20886;-71
2022/05/07 10:49:04;;;;;;;22.58;13.00;;;;;;;16.09;86.40;102442.38;5040536;28;20036;-72
2022/05/07 10:51:50;;;;;;;16.35;9.10;;;;;;;16.21;83.94;102445.44;5064282;28;20044;-71
2022/05/07 10:54:26;;;;;;;11.77;7.32;;;;;;;16.25;84.00;102449.72;5045623;28;20600;-70
2022/05/07 10:56:54;;;;;;;13.95;6.82;;;;;;;16.32;83.94;102450.28;5064629;28;20032;-72
2022/05/07 10:59:20;;;;;;;10.82;5.82;;;;;;;16.35;82.25;102453.69;5060793;28;20567;-72
2022/05/07 11:01:46;;;;;;;9.40;5.28;;;;;;;16.38;82.33;102456.25;5065290;28;20115;-71
2022/05/07 11:04:13;;;;;;;8.77;5.10;;;;;;;16.40;81.17;102449.03;5064134;28;20046;-71
2022/05/07 11:06:39;;;;;;;8.02;5.65;;;;;;;16.46;78.30;102458.59;5033131;28;20773;-72
2022/05/07 11:09:05;;;;;;;11.88;6.07;;;;;;;16.39;80.06;102452.63;5063938;28;20043;-70
2022/05/07 11:11:30;;;;;;;10.13;6.10;;;;;;;16.37;80.91;102459.88;5045564;28;20091;-71
2022/05/07 11:13:56;;;;;;;10.95;6.18;;;;;;;16.46;81.95;102447.00;5061751;28;20036;-71
2022/05/07 11:16:23;;;;;;;12.35;7.60;;;;;;;16.37;82.20;102451.84;5028403;28;20028;-71
2022/05/07 11:18:53;;;;;;;12.27;7.85;;;;;;;16.35;82.19;102463.53;5046005;28;20385;-71
2022/05/07 11:21:23;;;;;;;10.73;7.20;;;;;;;16.43;82.58;102456.91;5064761;28;20050;-72
2022/05/07 11:23:57;;;;;;;14.75;7.40;;;;;;;16.66;81.95;102455.00;5050420;28;20051;-73
2022/05/07 11:26:23;;;;;;;13.30;8.00;;;;;;;16.77;81.02;102448.31;5049112;28;20031;-72
2022/05/07 11:28:50;;;;;;;12.95;7.45;;;;;;;16.81;81.20;102464.13;5044762;28;20028;-72
2022/05/07 11:31:28;;;;;;;15.25;8.90;;;;;;;16.93;80.09;102461.81;5045130;28;20085;-72
2022/05/07 11:34:00;;;;;;;14.68;7.75;;;;;;;16.90;80.27;102462.84;5063469;28;20072;-72
2022/05/07 11:36:26;;;;;;;14.40;8.32;;;;;;;16.95;80.73;102466.13;5051082;28;20090;-71
2022/05/07 11:38:57;;;;;;;15.60;8.20;;;;;;;16.81;79.02;102453.44;5063796;28;20583;-71
2022/05/07 11:41:23;;;;;;;12.15;7.75;;;;;;;16.82;80.46;102471.22;5063447;28;20570;-72